createdAt,value
2018-11-26T00:00:35.153Z,100922.00
2018-11-26T00:03:10.078Z,100924.00
2018-11-26T00:05:40.420Z,100923.00
2018-11-26T00:08:12.271Z,100926.00
2018-11-26T00:11:49.421Z,100925.00
2018-11-26T00:14:18.292Z,100936.00
2018-11-26T00:16:47.210Z,100920.00
2018-11-26T00:19:15.994Z,100921.00
2018-11-26T00:21:44.805Z,100924.00
2018-11-26T00:24:13.609Z,100927.00
2018-11-26T00:26:42.464Z,100921.00
2018-11-26T00:29:11.306Z,100916.00
2018-11-26T00:31:40.116Z,100912.00
2018-11-26T00:34:09.124Z,100920.00
2018-11-26T00:36:38.049Z,100922.00
2018-11-26T00:39:09.901Z,100930.00
2018-11-26T00:41:38.785Z,100929.00
2018-11-26T00:44:08.151Z,100916.00
2018-11-26T00:46:36.960Z,100931.00
2018-11-26T00:49:05.828Z,100928.00
2018-11-26T00:51:37.935Z,100925.00
2018-11-26T00:54:06.831Z,100934.00
2018-11-26T00:56:35.663Z,100924.00
2018-11-26T00:59:04.492Z,100914.00
2018-11-26T01:01:33.292Z,100916.00
2018-11-26T01:04:02.091Z,100912.00
2018-11-26T01:06:31.331Z,100917.00
2018-11-26T01:09:00.171Z,100911.00
2018-11-26T01:11:28.959Z,100917.00
2018-11-26T01:13:57.779Z,100929.00
2018-11-26T01:16:26.667Z,100924.00
2018-11-26T01:18:55.484Z,100927.00
2018-11-26T01:21:24.329Z,100923.00
2018-11-26T01:23:53.115Z,100912.00
2018-11-26T01:26:21.899Z,100911.00
2018-11-26T01:28:50.695Z,100914.00
2018-11-26T01:31:19.486Z,100911.00
2018-11-26T01:33:48.295Z,100917.00
2018-11-26T01:36:17.288Z,100912.00
2018-11-26T01:38:46.075Z,100907.00
2018-11-26T01:41:14.927Z,100905.00
2018-11-26T01:43:43.748Z,100901.00
2018-11-26T01:46:12.545Z,100900.00
2018-11-26T01:48:41.333Z,100903.00
2018-11-26T01:51:10.155Z,100909.00
2018-11-26T01:53:38.973Z,100915.00
2018-11-26T01:56:07.763Z,100904.00
2018-11-26T01:58:36.752Z,100913.00
2018-11-26T02:01:05.797Z,100900.00
2018-11-26T02:03:34.575Z,100904.00
2018-11-26T02:06:03.394Z,100905.00
2018-11-26T02:08:32.556Z,100903.00
2018-11-26T02:11:01.360Z,100885.00
2018-11-26T02:13:30.182Z,100887.00
2018-11-26T02:15:59.028Z,100892.00
2018-11-26T02:18:27.870Z,100869.00
2018-11-26T02:20:57.150Z,100875.00
2018-11-26T02:23:25.982Z,100875.00
2018-11-26T02:25:54.789Z,100882.00
2018-11-26T02:28:23.579Z,100886.00
2018-11-26T02:30:52.407Z,100879.00
2018-11-26T02:33:21.212Z,100885.00
2018-11-26T02:35:50.034Z,100881.00
2018-11-26T02:38:18.816Z,100877.00
2018-11-26T02:40:47.613Z,100881.00
2018-11-26T02:43:16.892Z,100878.00
2018-11-26T02:45:45.707Z,100888.00
2018-11-26T02:48:14.507Z,100887.00
2018-11-26T02:50:43.303Z,100880.00
2018-11-26T02:53:12.096Z,100883.00
2018-11-26T02:55:40.896Z,100878.00
2018-11-26T02:58:09.740Z,100878.00
2018-11-26T03:00:41.383Z,100882.00
2018-11-26T03:03:10.784Z,100880.00
2018-11-26T03:05:39.728Z,100873.00
2018-11-26T03:08:08.544Z,100875.00
2018-11-26T03:10:37.783Z,100885.00
2018-11-26T03:13:06.938Z,100875.00
2018-11-26T03:15:35.760Z,100879.00
2018-11-26T03:18:04.753Z,100879.00
2018-11-26T03:20:33.554Z,100890.00
2018-11-26T03:23:02.343Z,100883.00
2018-11-26T03:25:31.422Z,100886.00
2018-11-26T03:28:00.220Z,100894.00
2018-11-26T03:30:29.059Z,100889.00
2018-11-26T03:32:57.867Z,100900.00
2018-11-26T03:35:26.724Z,100899.00
2018-11-26T03:37:55.532Z,100900.00
2018-11-26T03:40:24.349Z,100900.00
2018-11-26T03:42:53.139Z,100899.00
2018-11-26T03:45:21.947Z,100889.00
2018-11-26T03:47:51.028Z,100899.00
2018-11-26T03:50:19.824Z,100889.00
2018-11-26T03:52:48.715Z,100888.00
2018-11-26T03:55:17.515Z,100886.00
2018-11-26T03:57:46.323Z,100892.00
2018-11-26T04:00:16.516Z,100893.00
2018-11-26T04:02:45.364Z,100898.00
2018-11-26T04:05:14.210Z,100903.00
2018-11-26T04:07:43.043Z,100900.00
2018-11-26T04:10:13.322Z,100900.00
2018-11-26T04:12:42.500Z,100893.00
2018-11-26T04:15:14.887Z,100898.00
2018-11-26T04:17:43.707Z,100892.00
2018-11-26T04:20:12.508Z,100905.00
2018-11-26T04:22:41.300Z,100904.00
2018-11-26T04:25:10.524Z,100899.00
2018-11-26T04:27:39.296Z,100913.00
2018-11-26T04:30:11.396Z,100913.00
2018-11-26T04:32:40.750Z,100911.00
2018-11-26T04:35:10.004Z,100918.00
2018-11-26T04:37:38.953Z,100919.00
2018-11-26T04:40:10.306Z,100912.00
2018-11-26T04:42:39.312Z,100912.00
2018-11-26T04:45:10.752Z,100915.00
2018-11-26T04:47:39.759Z,100915.00
2018-11-26T04:50:11.644Z,100907.00
2018-11-26T04:52:40.503Z,100901.00
2018-11-26T04:55:11.074Z,100899.00
2018-11-26T04:57:42.603Z,100901.00
2018-11-26T05:00:13.079Z,100894.00
2018-11-26T05:02:42.002Z,100910.00
2018-11-26T05:05:12.360Z,100900.00
2018-11-26T05:07:41.175Z,100907.00
2018-11-26T05:10:12.822Z,100901.00
2018-11-26T05:12:41.640Z,100904.00
2018-11-26T05:15:12.512Z,100923.00
2018-11-26T05:17:41.392Z,100912.00
2018-11-26T05:20:13.485Z,100912.00
2018-11-26T05:22:42.329Z,100915.00
2018-11-26T05:25:11.899Z,100918.00
2018-11-26T05:27:40.704Z,100905.00
2018-11-26T05:30:11.444Z,100913.00
2018-11-26T05:32:40.319Z,100911.00
2018-11-26T05:35:11.455Z,100914.00
2018-11-26T05:37:40.250Z,100914.00
2018-11-26T05:40:10.978Z,100898.00
2018-11-26T05:42:39.932Z,100895.00
2018-11-26T05:45:13.190Z,100898.00
2018-11-26T05:47:41.989Z,100899.00
2018-11-26T05:50:12.381Z,100900.00
2018-11-26T05:52:41.572Z,100911.00
2018-11-26T05:55:15.771Z,100901.00
2018-11-26T05:57:45.914Z,100901.00
2018-11-26T06:00:18.414Z,100903.00
2018-11-26T06:02:47.487Z,100898.00
2018-11-26T06:05:16.295Z,100892.00
2018-11-26T06:07:45.095Z,100895.00
2018-11-26T06:10:13.940Z,100896.00
2018-11-26T06:12:42.759Z,100888.00
2018-11-26T06:15:13.899Z,100894.00
2018-11-26T06:17:42.786Z,100892.00
2018-11-26T06:20:12.824Z,100899.00
2018-11-26T06:22:44.540Z,100905.00
2018-11-26T06:25:21.430Z,100894.00
2018-11-26T06:27:50.302Z,100908.00
2018-11-26T06:30:19.975Z,100911.00
2018-11-26T06:32:48.891Z,100905.00
2018-11-26T06:35:22.316Z,100912.00
2018-11-26T06:37:51.193Z,100912.00
2018-11-26T06:40:20.007Z,100925.00
2018-11-26T06:42:48.948Z,100929.00
2018-11-26T06:45:22.544Z,100919.00
2018-11-26T06:47:51.584Z,100933.00
2018-11-26T06:50:21.389Z,100923.00
2018-11-26T06:52:50.199Z,100932.00
2018-11-26T06:55:20.511Z,100935.00
2018-11-26T06:57:49.314Z,100938.00
2018-11-26T07:00:19.830Z,100933.00
2018-11-26T07:02:48.964Z,100939.00
2018-11-26T07:05:20.275Z,100936.00
2018-11-26T07:07:49.170Z,100935.00
2018-11-26T07:10:19.236Z,100939.00
2018-11-26T07:12:48.045Z,100959.00
2018-11-26T07:15:19.930Z,100954.00
2018-11-26T07:17:48.838Z,100955.00
2018-11-26T07:20:19.092Z,100956.00
2018-11-26T07:22:48.005Z,100952.00
2018-11-26T07:25:18.482Z,100955.00
2018-11-26T07:27:51.637Z,100953.00
2018-11-26T07:30:25.267Z,100961.00
2018-11-26T07:32:54.099Z,100956.00
2018-11-26T07:35:22.923Z,100958.00
2018-11-26T07:37:51.749Z,100961.00
2018-11-26T07:40:22.233Z,100961.00
2018-11-26T07:42:55.464Z,100958.00
2018-11-26T07:45:24.274Z,100959.00
2018-11-26T07:47:53.079Z,100955.00
2018-11-26T07:50:21.935Z,100962.00
2018-11-26T07:52:50.761Z,100976.00
2018-11-26T07:55:20.832Z,100974.00
2018-11-26T07:57:49.630Z,100977.00
2018-11-26T08:00:20.296Z,100977.00
2018-11-26T08:02:49.956Z,100971.00
2018-11-26T08:05:20.375Z,100979.00
2018-11-26T08:07:49.198Z,100974.00
2018-11-26T08:10:22.321Z,100977.00
2018-11-26T08:12:52.905Z,100980.00
2018-11-26T08:15:23.352Z,100972.00
2018-11-26T08:17:52.165Z,100974.00
2018-11-26T08:20:21.045Z,100971.00
2018-11-26T08:22:49.847Z,100974.00
2018-11-26T08:25:22.146Z,100969.00
2018-11-26T08:27:51.342Z,100985.00
2018-11-26T08:30:24.748Z,100984.00
2018-11-26T08:32:57.220Z,100981.00
2018-11-26T08:35:26.329Z,100978.00
2018-11-26T08:38:00.429Z,100986.00
2018-11-26T08:40:30.243Z,100976.00
2018-11-26T08:43:15.142Z,100984.00
2018-11-26T08:45:57.952Z,100981.00
2018-11-26T08:48:28.755Z,100982.00
2018-11-26T08:51:00.407Z,100983.00
2018-11-26T08:53:29.296Z,100985.00
2018-11-26T08:55:58.118Z,100985.00
2018-11-26T08:58:26.930Z,100990.00
2018-11-26T09:01:01.120Z,100981.00
2018-11-26T09:03:35.810Z,100985.00
2018-11-26T09:06:05.437Z,100986.00
2018-11-26T09:08:36.207Z,100982.00
2018-11-26T09:11:06.719Z,100983.00
2018-11-26T09:13:35.491Z,100979.00
2018-11-26T09:16:04.828Z,100993.00
2018-11-26T09:18:33.653Z,100993.00
2018-11-26T09:21:02.485Z,100986.00
2018-11-26T09:23:31.271Z,100999.00
2018-11-26T09:26:00.059Z,100980.00
2018-11-26T09:28:28.855Z,100990.00
2018-11-26T09:30:57.683Z,100978.00
2018-11-26T09:33:26.467Z,100976.00
2018-11-26T09:35:55.252Z,100988.00
2018-11-26T09:38:24.063Z,100981.00
2018-11-26T09:40:52.878Z,100978.00
2018-11-26T09:43:21.661Z,100979.00
2018-11-26T09:45:50.472Z,100979.00
2018-11-26T09:48:19.259Z,100982.00
2018-11-26T09:50:48.066Z,100977.00
2018-11-26T09:53:17.256Z,100978.00
2018-11-26T09:55:46.061Z,100973.00
2018-11-26T09:58:14.842Z,100972.00
2018-11-26T10:00:43.721Z,100968.00
2018-11-26T10:03:12.549Z,100963.00
2018-11-26T10:05:41.382Z,100963.00
2018-11-26T10:08:10.204Z,100966.00
2018-11-26T10:10:39.045Z,100956.00
2018-11-26T10:13:08.098Z,100960.00
2018-11-26T10:15:37.181Z,100963.00
2018-11-26T10:18:06.315Z,100959.00
2018-11-26T10:20:35.129Z,100963.00
2018-11-26T10:23:03.974Z,100966.00
2018-11-26T10:25:32.762Z,100965.00
2018-11-26T10:28:01.552Z,100971.00
2018-11-26T10:30:30.387Z,100976.00
2018-11-26T10:32:59.295Z,100976.00
2018-11-26T10:35:28.095Z,100976.00
2018-11-26T10:37:56.931Z,100974.00
2018-11-26T10:40:27.493Z,100975.00
2018-11-26T10:42:56.264Z,100978.00
2018-11-26T10:45:25.682Z,100971.00
2018-11-26T10:47:54.483Z,100967.00
2018-11-26T10:50:26.110Z,100969.00
2018-11-26T10:52:58.711Z,100978.00
2018-11-26T10:55:33.300Z,100963.00
2018-11-26T10:58:02.299Z,100965.00
2018-11-26T11:00:36.589Z,100959.00
2018-11-26T11:03:05.849Z,100960.00
2018-11-26T11:05:35.592Z,100962.00
2018-11-26T11:08:04.770Z,100962.00
2018-11-26T11:10:34.097Z,100963.00
2018-11-26T11:13:02.986Z,100960.00
2018-11-26T11:15:31.820Z,100966.00
2018-11-26T11:18:00.682Z,100970.00
2018-11-26T11:20:30.115Z,100976.00
2018-11-26T11:22:58.955Z,100965.00
2018-11-26T11:25:27.808Z,100975.00
2018-11-26T11:27:56.674Z,100966.00
2018-11-26T11:30:27.362Z,100961.00
2018-11-26T11:32:56.200Z,100969.00
2018-11-26T11:35:25.010Z,100977.00
2018-11-26T11:37:54.772Z,100976.00
2018-11-26T11:40:28.077Z,100958.00
2018-11-26T11:42:57.885Z,100967.00
2018-11-26T11:45:27.476Z,100961.00
2018-11-26T11:47:56.310Z,100961.00
2018-11-26T11:50:25.673Z,100959.00
2018-11-26T11:52:54.539Z,100962.00
2018-11-26T11:55:24.904Z,100965.00
2018-11-26T11:57:53.836Z,100967.00
2018-11-26T12:00:36.562Z,100964.00
2018-11-26T12:03:14.662Z,100960.00
2018-11-26T12:05:43.509Z,100971.00
2018-11-26T12:08:12.356Z,100962.00
2018-11-26T12:10:41.188Z,100970.00
2018-11-26T12:13:11.874Z,100966.00
2018-11-26T12:15:45.455Z,100968.00
2018-11-26T12:18:14.242Z,100969.00
2018-11-26T12:20:43.375Z,100972.00
2018-11-26T12:23:12.262Z,100964.00
2018-11-26T12:25:41.051Z,100962.00
2018-11-26T12:28:09.879Z,100965.00
2018-11-26T12:30:44.240Z,100960.00
2018-11-26T12:33:13.100Z,100981.00
2018-11-26T12:35:41.944Z,100972.00
2018-11-26T12:38:11.237Z,100980.00
2018-11-26T12:40:40.143Z,100971.00
2018-11-26T12:43:08.957Z,100988.00
2018-11-26T12:45:37.784Z,100967.00
2018-11-26T12:48:06.650Z,100983.00
2018-11-26T12:50:35.485Z,100980.00
2018-11-26T12:53:04.340Z,100975.00
2018-11-26T12:55:33.450Z,100974.00
2018-11-26T12:58:02.369Z,100983.00
2018-11-26T13:00:31.216Z,100983.00
2018-11-26T13:03:07.414Z,100975.00
2018-11-26T13:05:36.269Z,100985.00
2018-11-26T13:08:05.173Z,100979.00
2018-11-26T13:10:34.028Z,100976.00
2018-11-26T13:13:02.874Z,100990.00
2018-11-26T13:15:31.717Z,100979.00
2018-11-26T13:18:00.535Z,100983.00
2018-11-26T13:20:30.693Z,100977.00
2018-11-26T13:23:00.118Z,100977.00
2018-11-26T13:25:33.762Z,100977.00
2018-11-26T13:28:03.926Z,100980.00
2018-11-26T13:30:38.087Z,100983.00
2018-11-26T13:33:10.788Z,100985.00
2018-11-26T13:35:40.274Z,100985.00
2018-11-26T13:38:09.824Z,100986.00
2018-11-26T13:40:38.687Z,100993.00
2018-11-26T13:43:09.589Z,100995.00
2018-11-26T13:45:40.908Z,100991.00
2018-11-26T13:48:11.658Z,100985.00
2018-11-26T13:50:44.421Z,100991.00
2018-11-26T13:53:13.488Z,100985.00
2018-11-26T13:55:42.286Z,100987.00
2018-11-26T13:58:11.161Z,100997.00
2018-11-26T14:00:39.999Z,100999.00
2018-11-26T14:03:08.844Z,100998.00
2018-11-26T14:05:37.668Z,100999.00
2018-11-26T14:08:06.847Z,101013.00
2018-11-26T14:10:35.669Z,100998.00
2018-11-26T14:13:11.439Z,101005.00
2018-11-26T14:15:40.310Z,101011.00
2018-11-26T14:18:09.160Z,100994.00
2018-11-26T14:20:38.005Z,101009.00
2018-11-26T14:23:07.580Z,101010.00
2018-11-26T14:25:36.373Z,101011.00
2018-11-26T14:28:06.223Z,101006.00
2018-11-26T14:30:34.253Z,101012.00
2018-11-26T14:33:03.116Z,101004.00
2018-11-26T14:35:32.041Z,101007.00
2018-11-26T14:38:03.472Z,101004.00
2018-11-26T14:40:34.814Z,101007.00
2018-11-26T14:43:03.617Z,101012.00
2018-11-26T14:45:32.452Z,101011.00
2018-11-26T14:48:01.309Z,101009.00
2018-11-26T14:50:30.164Z,101020.00
2018-11-26T14:52:59.019Z,101011.00
2018-11-26T14:55:29.762Z,101027.00
2018-11-26T14:57:58.606Z,101021.00
2018-11-26T15:00:27.409Z,101021.00
2018-11-26T15:02:56.242Z,101024.00
2018-11-26T15:05:25.077Z,101031.00
2018-11-26T15:07:53.932Z,101029.00
2018-11-26T15:10:24.161Z,101041.00
2018-11-26T15:12:53.030Z,101037.00
2018-11-26T15:15:24.317Z,101037.00
2018-11-26T15:17:54.501Z,101038.00
2018-11-26T15:20:26.481Z,101036.00
2018-11-26T15:22:56.736Z,101044.00
2018-11-26T15:25:28.582Z,101034.00
2018-11-26T15:28:00.460Z,101038.00
2018-11-26T15:30:29.289Z,101040.00
2018-11-26T15:32:58.071Z,101023.00
2018-11-26T15:35:27.122Z,101041.00
2018-11-26T15:37:55.889Z,101045.00
2018-11-26T15:40:24.685Z,101036.00
2018-11-26T15:42:53.484Z,101047.00
2018-11-26T15:45:23.908Z,101045.00
2018-11-26T15:47:53.909Z,101055.00
2018-11-26T15:50:22.745Z,101046.00
2018-11-26T15:52:51.596Z,101042.00
2018-11-26T15:55:21.727Z,101047.00
2018-11-26T15:57:50.701Z,101045.00
2018-11-26T16:00:20.987Z,101049.00
2018-11-26T16:02:50.144Z,101058.00
2018-11-26T16:05:22.700Z,101053.00
2018-11-26T16:07:52.265Z,101046.00
2018-11-26T16:10:21.064Z,101041.00
2018-11-26T16:12:59.335Z,101059.00
2018-11-26T16:15:32.170Z,101056.00
2018-11-26T16:18:02.275Z,101054.00
2018-11-26T16:20:31.193Z,101064.00
2018-11-26T16:23:00.599Z,101068.00
2018-11-26T16:25:29.897Z,101072.00
2018-11-26T16:27:58.718Z,101075.00
2018-11-26T16:30:27.529Z,101079.00
2018-11-26T16:32:58.216Z,101078.00
2018-11-26T16:35:30.134Z,101082.00
2018-11-26T16:37:59.188Z,101080.00
2018-11-26T16:40:27.984Z,101078.00
2018-11-26T16:42:56.779Z,101088.00
2018-11-26T16:45:27.945Z,101082.00
2018-11-26T16:47:58.069Z,101078.00
2018-11-26T16:50:29.898Z,101082.00
2018-11-26T16:52:58.687Z,101074.00
2018-11-26T16:55:27.496Z,101088.00
2018-11-26T16:57:56.336Z,101082.00
2018-11-26T17:00:27.843Z,101078.00
2018-11-26T17:03:00.293Z,101102.00
2018-11-26T17:05:31.709Z,101099.00
2018-11-26T17:08:00.491Z,101090.00
2018-11-26T17:10:29.672Z,101089.00
2018-11-26T17:12:58.478Z,101103.00
2018-11-26T17:15:27.281Z,101109.00
2018-11-26T17:17:56.134Z,101113.00
2018-11-26T17:20:24.981Z,101107.00
2018-11-26T17:22:53.796Z,101101.00
2018-11-26T17:25:22.612Z,101110.00
2018-11-26T17:27:51.940Z,101105.00
2018-11-26T17:30:24.229Z,101110.00
2018-11-26T17:32:56.828Z,101113.00
2018-11-26T17:35:25.666Z,101117.00
2018-11-26T17:37:54.493Z,101119.00
2018-11-26T17:40:24.397Z,101116.00
2018-11-26T17:42:53.709Z,101122.00
2018-11-26T17:45:23.298Z,101112.00
2018-11-26T17:47:57.193Z,101116.00
2018-11-26T17:50:33.232Z,101122.00
2018-11-26T17:53:02.037Z,101118.00
2018-11-26T17:55:30.843Z,101129.00
2018-11-26T17:57:59.647Z,101130.00
2018-11-26T18:00:31.684Z,101130.00
2018-11-26T18:03:00.491Z,101132.00
2018-11-26T18:05:30.909Z,101139.00
2018-11-26T18:08:09.417Z,101143.00
2018-11-26T18:10:38.433Z,101149.00
2018-11-26T18:13:07.450Z,101151.00
2018-11-26T18:15:36.300Z,101150.00
2018-11-26T18:18:08.565Z,101155.00
2018-11-26T18:20:37.379Z,101112.00
2018-11-26T18:23:07.888Z,101162.00
2018-11-26T18:25:36.724Z,101158.00
2018-11-26T18:28:09.837Z,101158.00
2018-11-26T18:30:40.854Z,101155.00
2018-11-26T18:33:09.672Z,101158.00
2018-11-26T18:35:39.028Z,101148.00
2018-11-26T18:38:08.347Z,101147.00
2018-11-26T18:40:38.837Z,101164.00
2018-11-26T18:43:08.953Z,101148.00
2018-11-26T18:45:39.175Z,101160.00
2018-11-26T18:48:09.410Z,101172.00
2018-11-26T18:50:38.688Z,101174.00
2018-11-26T18:53:08.416Z,101167.00
2018-11-26T18:55:38.534Z,101166.00
2018-11-26T18:58:07.716Z,101168.00
2018-11-26T19:00:46.095Z,101173.00
2018-11-26T19:03:20.957Z,101169.00
2018-11-26T19:05:51.816Z,101171.00
2018-11-26T19:08:20.629Z,101168.00
2018-11-26T19:10:52.411Z,101176.00
2018-11-26T19:13:26.168Z,101178.00
2018-11-26T19:16:02.588Z,101172.00
2018-11-26T19:18:31.384Z,101173.00
2018-11-26T19:21:00.205Z,101172.00
2018-11-26T19:23:29.039Z,101175.00
2018-11-26T19:25:57.865Z,101164.00
2018-11-26T19:28:27.230Z,101165.00
2018-11-26T19:30:56.272Z,101179.00
2018-11-26T19:33:25.077Z,101183.00
2018-11-26T19:35:53.893Z,101178.00
2018-11-26T19:38:22.767Z,101186.00
2018-11-26T19:40:51.684Z,101186.00
2018-11-26T19:43:20.497Z,101191.00
2018-11-26T19:45:49.362Z,101188.00
2018-11-26T19:48:18.181Z,101182.00
2018-11-26T19:50:47.059Z,101191.00
2018-11-26T19:53:16.214Z,101193.00
2018-11-26T19:55:45.062Z,101201.00
2018-11-26T19:58:13.903Z,101190.00
2018-11-26T20:00:42.772Z,101197.00
2018-11-26T20:03:21.040Z,101200.00
2018-11-26T20:06:06.650Z,101207.00
2018-11-26T20:08:35.494Z,101201.00
2018-11-26T20:11:04.313Z,101211.00
2018-11-26T20:13:33.457Z,101198.00
2018-11-26T20:16:02.296Z,101208.00
2018-11-26T20:18:31.131Z,101205.00
2018-11-26T20:20:59.977Z,101213.00
2018-11-26T20:23:28.860Z,101214.00
2018-11-26T20:25:57.713Z,101218.00
2018-11-26T20:28:26.757Z,101225.00
2018-11-26T20:30:55.623Z,101223.00
2018-11-26T20:33:24.768Z,101238.00
2018-11-26T20:35:53.739Z,101230.00
2018-11-26T20:38:22.536Z,101238.00
2018-11-26T20:40:51.357Z,101234.00
2018-11-26T20:43:20.184Z,101241.00
2018-11-26T20:45:50.141Z,101247.00
2018-11-26T20:48:18.944Z,101251.00
2018-11-26T20:50:50.705Z,101241.00
2018-11-26T20:53:22.372Z,101245.00
2018-11-26T20:55:51.538Z,101248.00
2018-11-26T20:58:20.328Z,101251.00
2018-11-26T21:00:49.181Z,101244.00
2018-11-26T21:03:18.023Z,101247.00
2018-11-26T21:05:46.842Z,101250.00
2018-11-26T21:08:15.740Z,101254.00
2018-11-26T21:10:44.555Z,101259.00
2018-11-26T21:13:16.883Z,101251.00
2018-11-26T21:15:42.228Z,101256.00
2018-11-26T21:18:13.344Z,101260.00
2018-11-26T21:20:50.528Z,101266.00
2018-11-26T21:23:26.669Z,101255.00
2018-11-26T21:25:57.286Z,101274.00
2018-11-26T21:28:26.064Z,101268.00
2018-11-26T21:30:55.210Z,101264.00
2018-11-26T21:33:24.017Z,101265.00
2018-11-26T21:35:52.819Z,101262.00
2018-11-26T21:38:22.132Z,101261.00
2018-11-26T21:40:50.975Z,101258.00
2018-11-26T21:43:19.764Z,101264.00
2018-11-26T21:45:54.189Z,101275.00
2018-11-26T21:48:23.034Z,101268.00
2018-11-26T21:50:51.905Z,101264.00
2018-11-26T21:53:20.711Z,101273.00
2018-11-26T21:55:49.516Z,101270.00
2018-11-26T21:58:18.372Z,101275.00
2018-11-26T22:00:49.053Z,101280.00
2018-11-26T22:03:17.922Z,101274.00
2018-11-26T22:05:46.776Z,101273.00
2018-11-26T22:08:15.593Z,101272.00
2018-11-26T22:10:44.892Z,101273.00
2018-11-26T22:13:16.120Z,101281.00
2018-11-26T22:15:44.950Z,101276.00
2018-11-26T22:18:13.760Z,101292.00
2018-11-26T22:20:43.009Z,101284.00
2018-11-26T22:23:11.823Z,101296.00
2018-11-26T22:25:40.628Z,101299.00
2018-11-26T22:28:10.875Z,101307.00
2018-11-26T22:30:40.303Z,101313.00
2018-11-26T22:33:09.657Z,101317.00
2018-11-26T22:35:38.724Z,101315.00
2018-11-26T22:38:07.604Z,101315.00
2018-11-26T22:40:36.412Z,101316.00
2018-11-26T22:43:06.153Z,101319.00
2018-11-26T22:45:35.196Z,101325.00
2018-11-26T22:48:09.867Z,101322.00
2018-11-26T22:50:40.479Z,101320.00
2018-11-26T22:53:09.916Z,101316.00
2018-11-26T22:55:38.772Z,101328.00
2018-11-26T22:58:11.753Z,101333.00
2018-11-26T23:00:47.717Z,101324.00
2018-11-26T23:03:18.661Z,101329.00
2018-11-26T23:05:47.481Z,101326.00
2018-11-26T23:08:16.271Z,101321.00
2018-11-26T23:10:45.084Z,101326.00
2018-11-26T23:13:13.893Z,101319.00
2018-11-26T23:15:42.691Z,101326.00
2018-11-26T23:18:11.534Z,101321.00
2018-11-26T23:20:40.353Z,101323.00
2018-11-26T23:23:09.172Z,101330.00
2018-11-26T23:25:37.978Z,101329.00
2018-11-26T23:28:06.789Z,101324.00
2018-11-26T23:30:35.596Z,101328.00
2018-11-26T23:33:05.865Z,101329.00
2018-11-26T23:35:34.941Z,101330.00
2018-11-26T23:38:03.730Z,101330.00
2018-11-26T23:40:32.570Z,101332.00
2018-11-26T23:43:04.453Z,101331.00
2018-11-26T23:45:33.267Z,101339.00
2018-11-26T23:48:02.162Z,101343.00
2018-11-26T23:50:30.968Z,101342.00
2018-11-26T23:52:59.784Z,101342.00
2018-11-26T23:55:28.715Z,101337.00
2018-11-26T23:57:57.619Z,101346.00
